EIKN 191930Z 19012KT 150V220 9999 FEW015 SCT020CB BKN045 12/09 Q1012 NOSIG EIKN 191900Z 20016KT 170V230 9999 FEW015 SCT020CB BKN050 13/09 Q1012 NOSIG EIKN 191830Z 19016KT 170V230 9999 FEW015 FEW020CB BKN045 13/08 Q1012 NOSIG EIKN 191800Z 19014KT 150V230 9999 FEW015 FEW020CB SCT032 13/08 Q1012 NOSIG EIKN 191730Z 21014KT 9999 FEW015 FEW020CB SCT038 14/08 Q1012 NOSIG EIKN 191700Z 21011KT 170V240 9999 FEW015 FEW020CB BKN050 13/09 Q1012 NOSIG EIKN 191630Z 20016G28KT 170V230 9999 FEW015 FEW020CB BKN050 14/08 Q1012 NOSIG EIKN 191600Z 19019G29KT 160V230 9999 FEW015 BKN032 14/08 Q1012 NOSIG EIKN 191530Z 21016G26KT 180V240 9999 FEW015 SCT026 BKN046 14/07 Q1012 NOSIG EIKN 191500Z 21018G28KT 180V250 9999 FEW015 BKN048 14/07 Q1012 NOSIG EIKN 191430Z 20017G28KT 170V230 9999 FEW015 SCT026 15/06 Q1012 NOSIG EIKN 191400Z 20016KT 160V240 9999 FEW013 BKN032 16/08 Q1012 NOSIG EIKN 191330Z 21014G24KT 9999 FEW013 BKN047 14/08 Q1012 NOSIG EIKN 191300Z 21016G26KT 180V240 9999 FEW013 SCT028 BKN048 13/08 Q1012 NOSIG EIKN 191230Z 20013KT 170V230 9999 FEW013 BKN029 BKN045 13/08 Q1012 NOSIG EIKN 191200Z 19015KT 150V220 9999 FEW012 SCT027 BKN042 13/09 Q1012 NOSIG EIKN 191130Z 19012KT 160V230 9999 -SHRA FEW012 BKN038 13/09 Q1012 NOSIG EIKN 191100Z 19016G26KT 9999 FEW012 BKN028 12/08 Q1012 NOSIG EIKN 191030Z 19016G26KT 160V230 9999 FEW012 BKN018 BKN050 13/09 Q1012 NOSIG EIKN 191000Z 19016KT 150V240 9999 -SHRA BKN019 BKN050 11/08 Q1012 NOSIG EIKN 190930Z 19011KT 150V230 9999 FEW012 SCT026 BKN050 12/08 Q1012 NOSIG EIKN 190900Z 18016KT 150V220 9999 FEW012 BKN050 11/08 Q1012 NOSIG EIKN 190830Z 19014KT 150V230 9999 FEW012 BKN048 11/08 Q1011 NOSIG EIKN 190800Z 18014KT 9999 FEW012 BKN047 10/08 Q1011 NOSIG EIKN 190730Z 18013KT 140V210 9999 FEW018 BKN045 10/08 Q1011 NOSIG EIKN 190700Z 17011KT 140V220 9999 FEW018 BKN046 09/07 Q1011 NOSIG EIKN 190630Z 18012KT 150V220 9999 FEW017 BKN043 09/07 Q1011 NOSIG EIKN 190600Z 18011KT 150V220 9999 FEW008 BKN040 08/07 Q1010 NOSIG EIKN 190530Z 18013KT 150V220 9999 FEW006 SCT018 BKN038 08/07 Q1010 NOSIG EIKN 190500Z 18011KT 140V210 9999 FEW006 BKN018 BKN041 07/07 Q1010 NOSIG EIKN 181730Z 17011KT 140V200 9999 FEW005 FEW022CB BKN045 BKN090 09/09 Q1004 NOSIG EIKN 181700Z 18011KT 150V210 9999 SHRA FEW003 SCT022CB BKN036 09/09 Q1004 NOSIG EIKN 181630Z 19011KT 160V230 7000 SHRA FEW006 BKN022CB BKN044 09/09 Q1005 NOSIG EIKN 181600Z 21010KT 170V240 8000 SHRA SCT006 BKN022CB BKN032 09/08 Q1005 NOSIG EIKN 181530Z 22014KT 5000 +SHRA BKN018 BKN022CB 09/09 Q1005 NOSIG EIKN 181500Z 16018G31KT 130V210 9000 -SHRA FEW018 SCT028 BKN048 13/10 Q1004 TEMPO SHRA EIKN 181430Z 15019G31KT 9999 FEW018 BKN048 14/08 Q1004 NOSIG EIKN 181400Z 15018G29KT 120V190 8000 -SHRA FEW018 SCT029 BKN050 13/10 Q1005 NOSIG EIKN 181330Z 15017KT 110V180 9999 FEW018 SCT036 BKN050 15/09 Q1005 NOSIG

METAR Messwerte "CONNAUGHT APT" EIKN

Zurück zur Übersicht

Ortsname
Ländercode / m ü. NN
Zeit Temperatur Taupunkt Rel.
Luftfeuchte
Luftdruck:
Altimeter
NN
Station
Wind in Beaufort
(Knoten)
Sichtweite
(Meter)
Wolken
(Meter über Grund)
Wettererscheinung
CONNAUGHT APT
IE 201
Do 19.05. 21:3012982 %1012
1012
988
S 4 (12)
SSO - SW
>= 10000Stark bewölkt (1400)
Wolkig Cb (610)
Leicht bewölkt (460)
 
CONNAUGHT APT
IE 201
Do 19.05. 21:0013977 %1012
1012
988
SSW 5 (16)
S - SW
>= 10000Stark bewölkt (1500)
Wolkig Cb (610)
Leicht bewölkt (460)
 
CONNAUGHT APT
IE 201
Do 19.05. 20:3013872 %1012
1012
988
S 5 (16)
S - SW
>= 10000Stark bewölkt (1400)
Leicht bewölkt Cb (610)
Leicht bewölkt (460)
 
CONNAUGHT APT
IE 201
Do 19.05. 20:0013872 %1012
1012
988
S 4 (14)
SSO - SW
>= 10000Wolkig (980)
Leicht bewölkt Cb (610)
Leicht bewölkt (460)
 
CONNAUGHT APT
IE 201
Do 19.05. 19:3014867 %1012
1012
988
SSW 4 (14)>= 10000Wolkig (1200)
Leicht bewölkt Cb (610)
Leicht bewölkt (460)
 
CONNAUGHT APT
IE 201
Do 19.05. 19:0013977 %1012
1012
988
SSW 4 (11)
S - WSW
>= 10000Stark bewölkt (1500)
Leicht bewölkt Cb (610)
Leicht bewölkt (460)
 
CONNAUGHT APT
IE 201
Do 19.05. 18:3014867 %1012
1012
988
SSW 5 (16) - 7 (28)
S - SW
>= 10000Stark bewölkt (1500)
Leicht bewölkt Cb (610)
Leicht bewölkt (460)
 
CONNAUGHT APT
IE 201
Do 19.05. 18:0014867 %1012
1012
988
S 5 (19) - 7 (29)
SSO - SW
>= 10000Stark bewölkt (980)
Leicht bewölkt (460)
 
CONNAUGHT APT
IE 201
Do 19.05. 17:3014763 %1012
1012
988
SSW 5 (16) - 6 (26)
S - WSW
>= 10000Stark bewölkt (1400)
Wolkig (790)
Leicht bewölkt (460)
 
CONNAUGHT APT
IE 201
Do 19.05. 17:0014763 %1012
1012
988
SSW 5 (18) - 7 (28)
S - WSW
>= 10000Stark bewölkt (1500)
Leicht bewölkt (460)
 
CONNAUGHT APT
IE 201
Do 19.05. 16:3015655 %1012
1012
988
SSW 5 (17) - 7 (28)
S - SW
>= 10000Wolkig (790)
Leicht bewölkt (460)
 
CONNAUGHT APT
IE 201
Do 19.05. 16:0016859 %1012
1012
988
SSW 5 (16)
SSO - WSW
>= 10000Stark bewölkt (980)
Leicht bewölkt (400)
 
CONNAUGHT APT
IE 201
Do 19.05. 15:3014867 %1012
1012
988
SSW 4 (14) - 6 (24)>= 10000Stark bewölkt (1400)
Leicht bewölkt (400)
 
CONNAUGHT APT
IE 201
Do 19.05. 15:0013872 %1012
1012
988
SSW 5 (16) - 6 (26)
S - WSW
>= 10000Stark bewölkt (1500)
Wolkig (850)
Leicht bewölkt (400)
 
CONNAUGHT APT
IE 201
Do 19.05. 14:3013872 %1012
1012
988
SSW 4 (13)
S - SW
>= 10000Stark bewölkt (1400)
Stark bewölkt (880)
Leicht bewölkt (400)
 
CONNAUGHT APT
IE 201
Do 19.05. 14:0013977 %1012
1012
988
S 4 (15)
SSO - SW
>= 10000Stark bewölkt (1300)
Wolkig (820)
Leicht bewölkt (370)
 
CONNAUGHT APT
IE 201
Do 19.05. 13:3013977 %1012
1012
988
S 4 (12)
SSO - SW
>= 10000Stark bewölkt (1200)
Leicht bewölkt (370)
Regen-Schauer (schwach)
CONNAUGHT APT
IE 201
Do 19.05. 13:0012876 %1012
1012
988
S 5 (16) - 6 (26)>= 10000Stark bewölkt (850)
Leicht bewölkt (370)
 
CONNAUGHT APT
IE 201
Do 19.05. 12:3013977 %1012
1012
988
S 5 (16) - 6 (26)
SSO - SW
>= 10000Stark bewölkt (1500)
Stark bewölkt (550)
Leicht bewölkt (370)
 
CONNAUGHT APT
IE 201
Do 19.05. 12:0011882 %1012
1012
988
S 5 (16)
SSO - WSW
>= 10000Stark bewölkt (1500)
Stark bewölkt (580)
Regen-Schauer (schwach)
CONNAUGHT APT
IE 201
Do 19.05. 11:3012876 %1012
1012
988
S 4 (11)
SSO - SW
>= 10000Stark bewölkt (1500)
Wolkig (790)
Leicht bewölkt (370)
 
CONNAUGHT APT
IE 201
Do 19.05. 11:0011882 %1012
1012
988
S 5 (16)
SSO - SW
>= 10000Stark bewölkt (1500)
Leicht bewölkt (370)
 
CONNAUGHT APT
IE 201
Do 19.05. 10:3011882 %1011
1011
987
S 4 (14)
SSO - SW
>= 10000Stark bewölkt (1500)
Leicht bewölkt (370)
 
CONNAUGHT APT
IE 201
Do 19.05. 10:0010887 %1011
1011
987
S 4 (14)>= 10000Stark bewölkt (1400)
Leicht bewölkt (370)
 
CONNAUGHT APT
IE 201
Do 19.05. 09:3010887 %1011
1011
987
S 4 (13)
SO - SSW
>= 10000Stark bewölkt (1400)
Leicht bewölkt (550)
 
CONNAUGHT APT
IE 201
Do 19.05. 09:009787 %1011
1012
987
S 4 (11)
SO - SW
>= 10000Stark bewölkt (1400)
Leicht bewölkt (550)
 
CONNAUGHT APT
IE 201
Do 19.05. 08:309787 %1011
1012
987
S 4 (12)
SSO - SW
>= 10000Stark bewölkt (1300)
Leicht bewölkt (520)
 
CONNAUGHT APT
IE 201
Do 19.05. 08:008793 %1010
1011
986
S 4 (11)
SSO - SW
>= 10000Stark bewölkt (1200)
Leicht bewölkt (240)
 
CONNAUGHT APT
IE 201
Do 19.05. 07:308793 %1010
1011
986
S 4 (13)
SSO - SW
>= 10000Stark bewölkt (1200)
Wolkig (550)
Leicht bewölkt (180)
 
CONNAUGHT APT
IE 201
Do 19.05. 07:0077100 %1010
1011
986
S 4 (11)
SO - SSW
>= 10000Stark bewölkt (1200)
Stark bewölkt (550)
Leicht bewölkt (180)
 
CONNAUGHT APT
IE 201
Mi 18.05. 19:3099100 %1004
1004
980
S 4 (11)
SO - SSW
>= 10000Stark bewölkt (2700)
Stark bewölkt (1400)
Leicht bewölkt Cb (670)
Leicht bewölkt (150)
 
CONNAUGHT APT
IE 201
Mi 18.05. 19:0099100 %1004
1004
980
S 4 (11)
SSO - SSW
>= 10000Stark bewölkt (1100)
Wolkig Cb (670)
Leicht bewölkt (91)
Regen-Schauer
CONNAUGHT APT
IE 201
Mi 18.05. 18:3099100 %1005
1005
981
S 4 (11)
SSO - SW
7000Stark bewölkt (1300)
Stark bewölkt Cb (670)
Leicht bewölkt (180)
Regen-Schauer
CONNAUGHT APT
IE 201
Mi 18.05. 18:009893 %1005
1005
981
SSW 3 (10)
S - WSW
8000Stark bewölkt (980)
Stark bewölkt Cb (670)
Wolkig (180)
Regen-Schauer
CONNAUGHT APT
IE 201
Mi 18.05. 17:3099100 %1005
1005
981
SW 4 (14)5000Stark bewölkt Cb (670)
Stark bewölkt (550)
Regen-Schauer (stark)
CONNAUGHT APT
IE 201
Mi 18.05. 17:00131082 %1004
1004
980
SSO 5 (18) - 7 (31)
SO - SSW
9000Stark bewölkt (1500)
Wolkig (850)
Leicht bewölkt (550)
Regen-Schauer (schwach)
Bald zeitweise: Regen-Schauer
CONNAUGHT APT
IE 201
Mi 18.05. 16:3014867 %1004
1004
980
SSO 5 (19) - 7 (31)>= 10000Stark bewölkt (1500)
Leicht bewölkt (550)
 
CONNAUGHT APT
IE 201
Mi 18.05. 16:00131082 %1005
1005
981
SSO 5 (18) - 7 (29)
OSO - S
8000Stark bewölkt (1500)
Wolkig (880)
Leicht bewölkt (550)
Regen-Schauer (schwach)
CONNAUGHT APT
IE 201
Mi 18.05. 15:3015967 %1005
1005
981
SSO 5 (17)
OSO - S
>= 10000Stark bewölkt (1500)
Wolkig (1100)
Leicht bewölkt (550)
 

Altimeter: Einstellung am Altimeter (Höhenmesser), die Höhe 0 muss auf diesen Luftdruckwert zeigen, damit das Gerät die Stationshöhe richtig anzeigt.

NN: Luftdruck reduziert auf "Normal Null", auf Meereshöhe, dieser von der Temperatur abhängige Wert wird bisweilen unkorrekt einfach als "Luftdruck" bezeichnet. Eigentlich nur eine fiktive Größe, die es erlaubt, Stationen auf unterschiedlichen Höhen miteinander zu vergleichen.

Station: Realer Luftdruck an der Station.